sensor_id;sensor_type;location;lat;lon;timestamp;P1;durP1;ratioP1;P2;durP2;ratioP2
75377;SDS011;63959;51.960;5.886;2023-08-30T07:11:41;18.13;;;10.18;;
75377;SDS011;63959;51.960;5.886;2023-08-30T07:14:11;13.35;;;7.93;;
75377;SDS011;63959;51.960;5.886;2023-08-30T07:16:51;16.77;;;9.82;;
75377;SDS011;63959;51.960;5.886;2023-08-30T07:19:21;17.48;;;10.85;;
75377;SDS011;63959;51.960;5.886;2023-08-30T07:21:52;15.55;;;9.05;;
75377;SDS011;63959;51.960;5.886;2023-08-30T07:24:21;16.00;;;8.55;;
75377;SDS011;63959;51.960;5.886;2023-08-30T07:26:55;14.18;;;9.35;;
75377;SDS011;63959;51.960;5.886;2023-08-30T07:29:23;21.23;;;11.43;;
75377;SDS011;63959;51.960;5.886;2023-08-30T07:31:52;18.75;;;11.98;;
75377;SDS011;63959;51.960;5.886;2023-08-30T07:34:21;22.52;;;12.52;;
75377;SDS011;63959;51.960;5.886;2023-08-30T07:36:50;17.15;;;9.65;;
75377;SDS011;63959;51.960;5.886;2023-08-30T07:39:18;16.77;;;9.68;;
75377;SDS011;63959;51.960;5.886;2023-08-30T07:41:47;16.90;;;10.60;;
75377;SDS011;63959;51.960;5.886;2023-08-30T07:44:18;18.02;;;10.50;;
75377;SDS011;63959;51.960;5.886;2023-08-30T07:46:47;15.65;;;8.35;;
75377;SDS011;63959;51.960;5.886;2023-08-30T07:49:16;17.98;;;9.90;;
75377;SDS011;63959;51.960;5.886;2023-08-30T07:51:45;16.15;;;9.13;;
75377;SDS011;63959;51.960;5.886;2023-08-30T07:54:13;14.50;;;8.32;;
75377;SDS011;63959;51.960;5.886;2023-08-30T07:56:42;17.55;;;9.27;;
75377;SDS011;63959;51.960;5.886;2023-08-30T07:59:11;21.40;;;10.05;;
75377;SDS011;63959;51.960;5.886;2023-08-30T08:01:42;14.13;;;7.97;;
75377;SDS011;63959;51.960;5.886;2023-08-30T08:04:11;15.27;;;8.38;;
75377;SDS011;63959;51.960;5.886;2023-08-30T08:06:39;14.90;;;7.70;;
75377;SDS011;63959;51.960;5.886;2023-08-30T08:09:09;20.10;;;10.60;;
75377;SDS011;63959;51.960;5.886;2023-08-30T08:11:38;27.00;;;12.75;;
75377;SDS011;63959;51.960;5.886;2023-08-30T08:14:09;17.67;;;9.73;;
75377;SDS011;63959;51.960;5.886;2023-08-30T08:16:38;13.57;;;6.80;;
75377;SDS011;63959;51.960;5.886;2023-08-30T08:19:09;17.65;;;9.20;;
75377;SDS011;63959;51.960;5.886;2023-08-30T08:21:38;16.50;;;9.32;;
75377;SDS011;63959;51.960;5.886;2023-08-30T08:24:06;16.75;;;8.82;;
75377;SDS011;63959;51.960;5.886;2023-08-30T08:26:35;17.35;;;9.43;;
75377;SDS011;63959;51.960;5.886;2023-08-30T08:29:05;13.43;;;6.35;;
75377;SDS011;63959;51.960;5.886;2023-08-30T08:31:34;13.93;;;6.38;;
75377;SDS011;63959;51.960;5.886;2023-08-30T08:34:09;13.68;;;7.10;;
75377;SDS011;63959;51.960;5.886;2023-08-30T08:36:38;14.43;;;7.82;;
75377;SDS011;63959;51.960;5.886;2023-08-30T08:39:07;12.40;;;6.75;;
75377;SDS011;63959;51.960;5.886;2023-08-30T08:41:39;15.27;;;8.05;;
75377;SDS011;63959;51.960;5.886;2023-08-30T08:44:09;16.05;;;7.70;;
75377;SDS011;63959;51.960;5.886;2023-08-30T08:46:38;16.90;;;8.60;;
75377;SDS011;63959;51.960;5.886;2023-08-30T08:49:11;15.90;;;8.43;;
75377;SDS011;63959;51.960;5.886;2023-08-30T08:51:40;11.82;;;7.15;;
75377;SDS011;63959;51.960;5.886;2023-08-30T08:54:10;15.82;;;9.30;;
75377;SDS011;63959;51.960;5.886;2023-08-30T08:56:39;13.95;;;7.78;;
75377;SDS011;63959;51.960;5.886;2023-08-30T08:59:07;11.52;;;6.93;;
75377;SDS011;63959;51.960;5.886;2023-08-30T09:01:37;13.70;;;8.13;;
75377;SDS011;63959;51.960;5.886;2023-08-30T09:04:07;17.65;;;9.32;;
75377;SDS011;63959;51.960;5.886;2023-08-30T09:06:38;15.60;;;10.57;;
75377;SDS011;63959;51.960;5.886;2023-08-30T09:09:09;14.85;;;7.90;;
75377;SDS011;63959;51.960;5.886;2023-08-30T09:11:37;13.93;;;8.07;;
75377;SDS011;63959;51.960;5.886;2023-08-30T09:14:08;13.95;;;8.07;;
75377;SDS011;63959;51.960;5.886;2023-08-30T09:16:36;16.40;;;8.65;;
75377;SDS011;63959;51.960;5.886;2023-08-30T09:19:05;17.33;;;9.68;;
75377;SDS011;63959;51.960;5.886;2023-08-30T09:21:38;15.40;;;9.30;;
75377;SDS011;63959;51.960;5.886;2023-08-30T09:24:07;19.58;;;10.82;;
75377;SDS011;63959;51.960;5.886;2023-08-30T09:26:36;14.60;;;7.93;;
75377;SDS011;63959;51.960;5.886;2023-08-30T09:29:05;11.48;;;7.03;;
75377;SDS011;63959;51.960;5.886;2023-08-30T09:31:34;12.85;;;7.28;;
75377;SDS011;63959;51.960;5.886;2023-08-30T09:34:03;12.93;;;7.63;;
75377;SDS011;63959;51.960;5.886;2023-08-30T09:36:34;12.57;;;7.57;;
75377;SDS011;63959;51.960;5.886;2023-08-30T09:39:06;15.32;;;8.70;;
75377;SDS011;63959;51.960;5.886;2023-08-30T09:41:35;14.20;;;8.55;;
75377;SDS011;63959;51.960;5.886;2023-08-30T09:44:09;10.85;;;6.35;;
75377;SDS011;63959;51.960;5.886;2023-08-30T09:46:44;12.60;;;7.28;;
75377;SDS011;63959;51.960;5.886;2023-08-30T09:49:13;16.08;;;7.63;;
75377;SDS011;63959;51.960;5.886;2023-08-30T09:51:42;10.45;;;5.18;;
75377;SDS011;63959;51.960;5.886;2023-08-30T09:54:17;12.18;;;7.13;;
75377;SDS011;63959;51.960;5.886;2023-08-30T09:56:46;10.38;;;6.03;;
75377;SDS011;63959;51.960;5.886;2023-08-30T09:59:18;12.77;;;7.63;;
75377;SDS011;63959;51.960;5.886;2023-08-30T10:01:47;12.48;;;7.00;;
75377;SDS011;63959;51.960;5.886;2023-08-30T10:04:18;12.52;;;6.88;;
75377;SDS011;63959;51.960;5.886;2023-08-30T10:06:47;13.02;;;7.53;;
75377;SDS011;63959;51.960;5.886;2023-08-30T10:09:18;11.43;;;5.35;;
75377;SDS011;63959;51.960;5.886;2023-08-30T10:11:47;13.05;;;8.05;;
75377;SDS011;63959;51.960;5.886;2023-08-30T10:14:17;11.57;;;5.97;;
75377;SDS011;63959;51.960;5.886;2023-08-30T10:16:46;9.38;;;5.63;;
75377;SDS011;63959;51.960;5.886;2023-08-30T10:19:15;10.90;;;6.63;;
75377;SDS011;63959;51.960;5.886;2023-08-30T10:21:44;12.98;;;8.38;;
75377;SDS011;63959;51.960;5.886;2023-08-30T10:24:15;15.75;;;9.95;;
75377;SDS011;63959;51.960;5.886;2023-08-30T10:26:47;11.30;;;7.18;;
75377;SDS011;63959;51.960;5.886;2023-08-30T10:29:17;12.77;;;7.80;;
75377;SDS011;63959;51.960;5.886;2023-08-30T10:31:49;11.88;;;7.43;;
75377;SDS011;63959;51.960;5.886;2023-08-30T10:34:17;13.63;;;7.57;;
75377;SDS011;63959;51.960;5.886;2023-08-30T10:36:55;11.27;;;6.75;;
75377;SDS011;63959;51.960;5.886;2023-08-30T10:39:32;13.93;;;8.82;;
75377;SDS011;63959;51.960;5.886;2023-08-30T10:42:06;15.77;;;9.32;;
75377;SDS011;63959;51.960;5.886;2023-08-30T10:44:46;14.27;;;8.85;;
75377;SDS011;63959;51.960;5.886;2023-08-30T10:47:18;13.52;;;8.55;;
75377;SDS011;63959;51.960;5.886;2023-08-30T10:49:48;16.77;;;11.07;;
75377;SDS011;63959;51.960;5.886;2023-08-30T10:52:17;14.65;;;9.80;;
75377;SDS011;63959;51.960;5.886;2023-08-30T10:54:46;15.63;;;10.63;;
75377;SDS011;63959;51.960;5.886;2023-08-30T10:57:18;16.45;;;10.40;;
75377;SDS011;63959;51.960;5.886;2023-08-30T11:02:33;11.90;;;7.45;;
75377;SDS011;63959;51.960;5.886;2023-08-30T11:05:01;14.10;;;9.15;;
75377;SDS011;63959;51.960;5.886;2023-08-30T11:07:33;13.25;;;8.98;;
75377;SDS011;63959;51.960;5.886;2023-08-30T11:10:04;15.35;;;9.90;;
75377;SDS011;63959;51.960;5.886;2023-08-30T11:12:35;15.93;;;9.05;;
75377;SDS011;63959;51.960;5.886;2023-08-30T11:15:06;14.20;;;9.05;;
75377;SDS011;63959;51.960;5.886;2023-08-30T11:17:35;16.48;;;11.10;;
75377;SDS011;63959;51.960;5.886;2023-08-30T11:20:07;15.30;;;9.85;;
75377;SDS011;63959;51.960;5.886;2023-08-30T11:22:36;17.45;;;11.60;;
75377;SDS011;63959;51.960;5.886;2023-08-30T11:25:05;17.48;;;10.63;;
75377;SDS011;63959;51.960;5.886;2023-08-30T11:27:38;14.73;;;10.10;;
75377;SDS011;63959;51.960;5.886;2023-08-30T11:30:08;17.10;;;12.00;;
75377;SDS011;63959;51.960;5.886;2023-08-30T11:32:37;13.20;;;9.98;;
75377;SDS011;63959;51.960;5.886;2023-08-30T11:35:07;14.02;;;9.73;;
75377;SDS011;63959;51.960;5.886;2023-08-30T11:37:36;12.55;;;8.18;;
75377;SDS011;63959;51.960;5.886;2023-08-30T11:40:05;13.35;;;9.77;;
75377;SDS011;63959;51.960;5.886;2023-08-30T11:42:34;11.95;;;6.95;;
75377;SDS011;63959;51.960;5.886;2023-08-30T11:45:06;11.57;;;7.78;;
75377;SDS011;63959;51.960;5.886;2023-08-30T11:47:35;9.63;;;6.90;;
75377;SDS011;63959;51.960;5.886;2023-08-30T11:50:04;10.57;;;7.18;;
75377;SDS011;63959;51.960;5.886;2023-08-30T11:52:34;11.02;;;7.63;;
75377;SDS011;63959;51.960;5.886;2023-08-30T11:55:04;11.95;;;7.68;;
75377;SDS011;63959;51.960;5.886;2023-08-30T11:57:33;10.38;;;6.57;;
75377;SDS011;63959;51.960;5.886;2023-08-30T12:00:12;8.80;;;5.63;;
75377;SDS011;63959;51.960;5.886;2023-08-30T12:02:40;9.93;;;6.88;;
75377;SDS011;63959;51.960;5.886;2023-08-30T12:05:10;9.90;;;6.63;;
75377;SDS011;63959;51.960;5.886;2023-08-30T12:07:39;8.90;;;5.10;;
75377;SDS011;63959;51.960;5.886;2023-08-30T12:10:09;9.65;;;5.57;;
75377;SDS011;63959;51.960;5.886;2023-08-30T12:12:43;7.32;;;4.55;;
75377;SDS011;63959;51.960;5.886;2023-08-30T12:17:43;8.93;;;4.20;;
75377;SDS011;63959;51.960;5.886;2023-08-30T12:20:15;9.90;;;4.85;;
75377;SDS011;63959;51.960;5.886;2023-08-30T12:22:46;6.97;;;3.58;;
75377;SDS011;63959;51.960;5.886;2023-08-30T12:25:17;8.98;;;4.38;;
75377;SDS011;63959;51.960;5.886;2023-08-30T12:27:51;8.20;;;3.65;;
75377;SDS011;63959;51.960;5.886;2023-08-30T12:30:35;8.23;;;3.05;;
75377;SDS011;63959;51.960;5.886;2023-08-30T12:33:27;6.75;;;3.67;;
75377;SDS011;63959;51.960;5.886;2023-08-30T12:36:49;6.05;;;3.15;;
75377;SDS011;63959;51.960;5.886;2023-08-30T12:39:49;8.15;;;3.35;;
75377;SDS011;63959;51.960;5.886;2023-08-30T12:42:55;9.55;;;3.40;;
75377;SDS011;63959;51.960;5.886;2023-08-30T12:45:24;6.45;;;2.50;;
75377;SDS011;63959;51.960;5.886;2023-08-30T12:47:52;8.95;;;3.20;;
75377;SDS011;63959;51.960;5.886;2023-08-30T12:50:27;7.25;;;2.95;;
75377;SDS011;63959;51.960;5.886;2023-08-30T12:52:56;6.88;;;2.60;;
75377;SDS011;63959;51.960;5.886;2023-08-30T12:55:25;8.00;;;3.22;;
75377;SDS011;63959;51.960;5.886;2023-08-30T12:57:54;8.25;;;2.40;;
75377;SDS011;63959;51.960;5.886;2023-08-30T13:00:23;8.30;;;2.63;;
75377;SDS011;63959;51.960;5.886;2023-08-30T13:02:51;7.45;;;2.95;;
75377;SDS011;63959;51.960;5.886;2023-08-30T13:05:20;6.72;;;2.70;;
75377;SDS011;63959;51.960;5.886;2023-08-30T13:07:52;7.97;;;3.05;;
75377;SDS011;63959;51.960;5.886;2023-08-30T13:10:21;8.25;;;2.97;;
75377;SDS011;63959;51.960;5.886;2023-08-30T13:12:49;9.20;;;3.60;;
75377;SDS011;63959;51.960;5.886;2023-08-30T13:15:18;6.40;;;2.30;;
75377;SDS011;63959;51.960;5.886;2023-08-30T13:17:47;9.43;;;2.63;;
75377;SDS011;63959;51.960;5.886;2023-08-30T13:20:16;12.85;;;3.15;;
75377;SDS011;63959;51.960;5.886;2023-08-30T13:22:45;10.68;;;2.60;;
75377;SDS011;63959;51.960;5.886;2023-08-30T13:25:17;11.15;;;3.22;;
75377;SDS011;63959;51.960;5.886;2023-08-30T13:27:47;9.57;;;2.70;;
75377;SDS011;63959;51.960;5.886;2023-08-30T13:30:16;7.53;;;2.58;;
75377;SDS011;63959;51.960;5.886;2023-08-30T13:32:45;7.50;;;2.50;;
75377;SDS011;63959;51.960;5.886;2023-08-30T13:35:13;7.47;;;2.70;;
75377;SDS011;63959;51.960;5.886;2023-08-30T13:37:42;6.78;;;2.72;;
75377;SDS011;63959;51.960;5.886;2023-08-30T13:40:11;6.95;;;2.08;;
75377;SDS011;63959;51.960;5.886;2023-08-30T13:42:42;9.00;;;2.40;;
75377;SDS011;63959;51.960;5.886;2023-08-30T13:45:11;8.25;;;2.38;;
75377;SDS011;63959;51.960;5.886;2023-08-30T13:47:40;8.10;;;2.80;;
75377;SDS011;63959;51.960;5.886;2023-08-30T13:50:10;5.78;;;2.45;;
75377;SDS011;63959;51.960;5.886;2023-08-30T13:52:40;6.60;;;1.90;;
75377;SDS011;63959;51.960;5.886;2023-08-30T13:55:06;7.38;;;1.80;;
75377;SDS011;63959;51.960;5.886;2023-08-30T13:57:35;8.35;;;2.20;;
75377;SDS011;63959;51.960;5.886;2023-08-30T14:00:07;9.45;;;2.28;;
75377;SDS011;63959;51.960;5.886;2023-08-30T14:02:36;9.43;;;2.45;;
75377;SDS011;63959;51.960;5.886;2023-08-30T14:05:05;6.50;;;1.73;;
75377;SDS011;63959;51.960;5.886;2023-08-30T14:07:34;7.50;;;2.20;;
75377;SDS011;63959;51.960;5.886;2023-08-30T14:10:04;8.20;;;2.00;;
75377;SDS011;63959;51.960;5.886;2023-08-30T14:12:32;7.63;;;2.30;;
75377;SDS011;63959;51.960;5.886;2023-08-30T14:15:01;6.55;;;1.70;;
75377;SDS011;63959;51.960;5.886;2023-08-30T14:17:33;6.60;;;1.88;;
75377;SDS011;63959;51.960;5.886;2023-08-30T14:20:02;6.50;;;2.17;;
75377;SDS011;63959;51.960;5.886;2023-08-30T14:22:33;7.35;;;2.10;;
75377;SDS011;63959;51.960;5.886;2023-08-30T14:25:02;4.43;;;1.58;;
75377;SDS011;63959;51.960;5.886;2023-08-30T14:27:32;10.07;;;1.70;;
75377;SDS011;63959;51.960;5.886;2023-08-30T14:30:01;7.47;;;1.73;;
75377;SDS011;63959;51.960;5.886;2023-08-30T14:32:32;8.20;;;1.83;;
75377;SDS011;63959;51.960;5.886;2023-08-30T14:35:02;7.85;;;2.63;;
75377;SDS011;63959;51.960;5.886;2023-08-30T14:37:33;8.13;;;2.20;;
75377;SDS011;63959;51.960;5.886;2023-08-30T14:40:03;6.28;;;1.98;;
75377;SDS011;63959;51.960;5.886;2023-08-30T14:42:32;7.25;;;1.90;;
75377;SDS011;63959;51.960;5.886;2023-08-30T14:45:01;6.47;;;1.92;;
75377;SDS011;63959;51.960;5.886;2023-08-30T14:47:34;6.40;;;1.80;;
75377;SDS011;63959;51.960;5.886;2023-08-30T14:50:04;6.72;;;1.70;;
75377;SDS011;63959;51.960;5.886;2023-08-30T14:52:32;7.72;;;2.28;;
75377;SDS011;63959;51.960;5.886;2023-08-30T14:55:01;4.55;;;1.42;;
75377;SDS011;63959;51.960;5.886;2023-08-30T14:57:30;5.72;;;1.98;;
75377;SDS011;63959;51.960;5.886;2023-08-30T14:59:58;6.93;;;1.80;;
75377;SDS011;63959;51.960;5.886;2023-08-30T15:02:27;6.82;;;2.03;;
75377;SDS011;63959;51.960;5.886;2023-08-30T15:04:59;7.18;;;1.73;;
75377;SDS011;63959;51.960;5.886;2023-08-30T15:07:28;8.85;;;2.30;;
75377;SDS011;63959;51.960;5.886;2023-08-30T15:09:56;4.38;;;1.60;;
75377;SDS011;63959;51.960;5.886;2023-08-30T15:12:25;6.43;;;2.00;;
75377;SDS011;63959;51.960;5.886;2023-08-30T15:14:54;6.97;;;1.60;;
75377;SDS011;63959;51.960;5.886;2023-08-30T15:17:22;6.93;;;2.17;;
75377;SDS011;63959;51.960;5.886;2023-08-30T15:19:51;6.05;;;1.45;;
75377;SDS011;63959;51.960;5.886;2023-08-30T15:22:23;4.20;;;1.20;;
75377;SDS011;63959;51.960;5.886;2023-08-30T15:24:51;5.68;;;1.50;;
75377;SDS011;63959;51.960;5.886;2023-08-30T15:27:20;4.13;;;1.33;;
75377;SDS011;63959;51.960;5.886;2023-08-30T15:29:49;5.70;;;1.40;;
75377;SDS011;63959;51.960;5.886;2023-08-30T15:32:20;5.45;;;1.38;;
75377;SDS011;63959;51.960;5.886;2023-08-30T15:34:50;5.15;;;1.38;;
75377;SDS011;63959;51.960;5.886;2023-08-30T15:37:18;4.55;;;1.35;;
75377;SDS011;63959;51.960;5.886;2023-08-30T15:39:53;5.03;;;1.50;;
75377;SDS011;63959;51.960;5.886;2023-08-30T15:42:29;4.80;;;1.30;;
75377;SDS011;63959;51.960;5.886;2023-08-30T15:44:58;5.88;;;1.20;;
75377;SDS011;63959;51.960;5.886;2023-08-30T15:47:26;4.03;;;1.15;;
75377;SDS011;63959;51.960;5.886;2023-08-30T15:49:55;5.38;;;1.40;;
75377;SDS011;63959;51.960;5.886;2023-08-30T15:52:24;4.50;;;1.27;;
75377;SDS011;63959;51.960;5.886;2023-08-30T15:54:55;3.90;;;1.10;;
75377;SDS011;63959;51.960;5.886;2023-08-30T15:57:24;4.28;;;1.33;;
75377;SDS011;63959;51.960;5.886;2023-08-30T15:59:52;6.43;;;1.55;;
75377;SDS011;63959;51.960;5.886;2023-08-30T16:02:21;5.80;;;1.50;;
75377;SDS011;63959;51.960;5.886;2023-08-30T16:04:50;3.80;;;1.17;;
75377;SDS011;63959;51.960;5.886;2023-08-30T16:07:22;5.40;;;1.55;;
75377;SDS011;63959;51.960;5.886;2023-08-30T16:09:53;4.57;;;1.45;;
75377;SDS011;63959;51.960;5.886;2023-08-30T16:12:27;5.10;;;1.85;;
75377;SDS011;63959;51.960;5.886;2023-08-30T16:17:30;6.60;;;1.80;;
75377;SDS011;63959;51.960;5.886;2023-08-30T16:20:05;5.28;;;1.63;;
75377;SDS011;63959;51.960;5.886;2023-08-30T16:22:37;5.53;;;1.42;;
75377;SDS011;63959;51.960;5.886;2023-08-30T16:25:10;5.43;;;1.75;;
75377;SDS011;63959;51.960;5.886;2023-08-30T16:27:48;4.28;;;1.30;;
75377;SDS011;63959;51.960;5.886;2023-08-30T16:30:19;5.85;;;2.00;;
75377;SDS011;63959;51.960;5.886;2023-08-30T16:32:51;6.13;;;1.75;;
75377;SDS011;63959;51.960;5.886;2023-08-30T16:35:21;5.18;;;1.83;;
75377;SDS011;63959;51.960;5.886;2023-08-30T16:37:53;4.63;;;1.38;;
75377;SDS011;63959;51.960;5.886;2023-08-30T16:40:30;5.85;;;1.95;;
75377;SDS011;63959;51.960;5.886;2023-08-30T16:45:43;3.72;;;1.40;;
75377;SDS011;63959;51.960;5.886;2023-08-30T16:48:12;6.43;;;2.10;;
75377;SDS011;63959;51.960;5.886;2023-08-30T16:55:59;6.63;;;1.83;;
75377;SDS011;63959;51.960;5.886;2023-08-30T16:58:34;8.25;;;2.08;;
75377;SDS011;63959;51.960;5.886;2023-08-30T17:01:09;6.72;;;1.60;;
75377;SDS011;63959;51.960;5.886;2023-08-30T17:03:55;4.80;;;1.33;;
75377;SDS011;63959;51.960;5.886;2023-08-30T17:06:27;4.97;;;1.50;;
75377;SDS011;63959;51.960;5.886;2023-08-30T17:08:56;5.22;;;1.85;;
75377;SDS011;63959;51.960;5.886;2023-08-30T17:11:24;5.93;;;1.60;;
75377;SDS011;63959;51.960;5.886;2023-08-30T17:19:22;4.28;;;1.67;;
75377;SDS011;63959;51.960;5.886;2023-08-30T18:48:14;6.55;;;1.63;;
75377;SDS011;63959;51.960;5.886;2023-08-30T18:50:51;4.70;;;1.50;;
75377;SDS011;63959;51.960;5.886;2023-08-30T18:53:24;6.68;;;1.67;;
75377;SDS011;63959;51.960;5.886;2023-08-30T18:55:58;4.55;;;1.30;;
75377;SDS011;63959;51.960;5.886;2023-08-30T18:58:30;7.63;;;1.73;;
75377;SDS011;63959;51.960;5.886;2023-08-30T19:01:06;6.47;;;1.90;;
75377;SDS011;63959;51.960;5.886;2023-08-30T19:03:42;4.93;;;1.80;;
75377;SDS011;63959;51.960;5.886;2023-08-30T19:06:14;7.30;;;1.67;;
75377;SDS011;63959;51.960;5.886;2023-08-30T19:08:49;5.50;;;2.10;;
75377;SDS011;63959;51.960;5.886;2023-08-30T19:11:19;5.88;;;2.03;;
75377;SDS011;63959;51.960;5.886;2023-08-30T19:13:51;5.75;;;2.00;;
75377;SDS011;63959;51.960;5.886;2023-08-30T19:16:19;5.63;;;1.80;;
75377;SDS011;63959;51.960;5.886;2023-08-30T19:18:54;5.13;;;2.08;;
75377;SDS011;63959;51.960;5.886;2023-08-30T19:21:26;8.52;;;1.80;;
75377;SDS011;63959;51.960;5.886;2023-08-30T19:23:54;6.47;;;2.42;;
75377;SDS011;63959;51.960;5.886;2023-08-30T19:26:24;5.18;;;1.95;;
75377;SDS011;63959;51.960;5.886;2023-08-30T19:29:06;5.00;;;1.90;;
75377;SDS011;63959;51.960;5.886;2023-08-30T19:31:35;6.15;;;2.30;;
75377;SDS011;63959;51.960;5.886;2023-08-30T19:34:10;6.88;;;2.38;;
75377;SDS011;63959;51.960;5.886;2023-08-30T19:36:39;6.93;;;2.38;;
75377;SDS011;63959;51.960;5.886;2023-08-30T19:39:10;6.05;;;1.90;;
75377;SDS011;63959;51.960;5.886;2023-08-30T19:41:39;6.90;;;2.47;;
75377;SDS011;63959;51.960;5.886;2023-08-30T19:44:18;8.77;;;2.50;;
75377;SDS011;63959;51.960;5.886;2023-08-30T19:47:00;6.30;;;1.90;;
75377;SDS011;63959;51.960;5.886;2023-08-30T19:49:32;5.70;;;1.77;;
75377;SDS011;63959;51.960;5.886;2023-08-30T19:55:06;7.35;;;2.22;;
75377;SDS011;63959;51.960;5.886;2023-08-30T19:57:43;5.93;;;1.90;;
75377;SDS011;63959;51.960;5.886;2023-08-30T20:00:38;4.68;;;1.67;;
75377;SDS011;63959;51.960;5.886;2023-08-30T20:03:15;5.68;;;2.20;;
75377;SDS011;63959;51.960;5.886;2023-08-30T20:05:54;6.30;;;1.60;;
75377;SDS011;63959;51.960;5.886;2023-08-30T20:11:28;6.28;;;1.90;;
75377;SDS011;63959;51.960;5.886;2023-08-30T20:17:07;6.07;;;1.50;;
75377;SDS011;63959;51.960;5.886;2023-08-30T20:20:04;6.85;;;2.30;;
75377;SDS011;63959;51.960;5.886;2023-08-30T20:23:21;5.90;;;1.83;;
75377;SDS011;63959;51.960;5.886;2023-08-30T20:26:01;6.18;;;1.52;;
75377;SDS011;63959;51.960;5.886;2023-08-30T20:28:36;3.72;;;1.27;;
75377;SDS011;63959;51.960;5.886;2023-08-30T20:31:23;6.63;;;1.48;;
75377;SDS011;63959;51.960;5.886;2023-08-30T20:33:56;5.63;;;1.88;;
75377;SDS011;63959;51.960;5.886;2023-08-30T20:36:25;4.63;;;1.58;;
75377;SDS011;63959;51.960;5.886;2023-08-30T20:39:19;5.22;;;1.65;;
75377;SDS011;63959;51.960;5.886;2023-08-30T20:42:17;4.30;;;1.50;;
75377;SDS011;63959;51.960;5.886;2023-08-30T20:44:47;7.57;;;2.17;;
75377;SDS011;63959;51.960;5.886;2023-08-30T20:47:25;5.90;;;1.77;;
75377;SDS011;63959;51.960;5.886;2023-08-30T20:50:06;3.92;;;1.48;;
75377;SDS011;63959;51.960;5.886;2023-08-30T20:52:46;6.72;;;2.28;;
75377;SDS011;63959;51.960;5.886;2023-08-30T20:55:18;12.63;;;2.85;;
75377;SDS011;63959;51.960;5.886;2023-08-30T20:57:47;6.18;;;2.00;;
75377;SDS011;63959;51.960;5.886;2023-08-30T21:00:16;7.43;;;2.35;;
75377;SDS011;63959;51.960;5.886;2023-08-30T21:02:45;6.18;;;2.38;;
75377;SDS011;63959;51.960;5.886;2023-08-30T21:05:14;7.38;;;2.60;;
75377;SDS011;63959;51.960;5.886;2023-08-30T21:07:43;3.97;;;1.80;;
75377;SDS011;63959;51.960;5.886;2023-08-30T21:10:33;10.88;;;2.90;;
75377;SDS011;63959;51.960;5.886;2023-08-30T21:13:03;4.88;;;2.10;;
75377;SDS011;63959;51.960;5.886;2023-08-30T21:15:32;4.85;;;1.70;;
75377;SDS011;63959;51.960;5.886;2023-08-30T21:18:07;6.20;;;1.90;;
75377;SDS011;63959;51.960;5.886;2023-08-30T21:20:39;6.78;;;2.22;;
75377;SDS011;63959;51.960;5.886;2023-08-30T21:23:13;6.13;;;1.70;;
75377;SDS011;63959;51.960;5.886;2023-08-30T21:25:45;5.90;;;2.28;;
75377;SDS011;63959;51.960;5.886;2023-08-30T21:28:17;5.25;;;1.80;;
75377;SDS011;63959;51.960;5.886;2023-08-30T21:30:46;4.10;;;1.80;;
75377;SDS011;63959;51.960;5.886;2023-08-30T21:33:21;3.60;;;1.33;;
75377;SDS011;63959;51.960;5.886;2023-08-30T21:36:00;3.50;;;1.40;;
75377;SDS011;63959;51.960;5.886;2023-08-30T21:38:30;3.80;;;1.40;;
75377;SDS011;63959;51.960;5.886;2023-08-30T21:41:02;3.50;;;1.42;;
75377;SDS011;63959;51.960;5.886;2023-08-30T21:43:31;7.07;;;2.20;;
75377;SDS011;63959;51.960;5.886;2023-08-30T21:46:03;3.50;;;1.35;;
75377;SDS011;63959;51.960;5.886;2023-08-30T21:48:36;4.25;;;1.90;;
75377;SDS011;63959;51.960;5.886;2023-08-30T21:53:54;7.43;;;1.98;;
75377;SDS011;63959;51.960;5.886;2023-08-30T21:56:50;4.43;;;1.40;;
75377;SDS011;63959;51.960;5.886;2023-08-30T22:02:16;2.65;;;1.10;;
75377;SDS011;63959;51.960;5.886;2023-08-30T22:03:07;3.80;;;1.58;;
75377;SDS011;63959;51.960;5.886;2023-08-30T22:08:48;4.32;;;1.40;;
75377;SDS011;63959;51.960;5.886;2023-08-30T22:11:29;4.53;;;1.58;;
75377;SDS011;63959;51.960;5.886;2023-08-30T22:14:15;8.30;;;2.85;;
75377;SDS011;63959;51.960;5.886;2023-08-30T22:16:52;5.47;;;1.63;;
75377;SDS011;63959;51.960;5.886;2023-08-30T22:19:38;4.72;;;1.65;;
75377;SDS011;63959;51.960;5.886;2023-08-30T22:22:25;3.28;;;1.38;;
75377;SDS011;63959;51.960;5.886;2023-08-30T22:25:03;4.40;;;2.03;;
75377;SDS011;63959;51.960;5.886;2023-08-30T22:30:54;4.90;;;1.52;;
75377;SDS011;63959;51.960;5.886;2023-08-30T22:33:41;3.65;;;1.17;;
75377;SDS011;63959;51.960;5.886;2023-08-30T22:36:10;4.93;;;2.00;;
75377;SDS011;63959;51.960;5.886;2023-08-30T22:38:43;3.38;;;1.35;;
75377;SDS011;63959;51.960;5.886;2023-08-30T22:41:21;5.65;;;1.85;;
75377;SDS011;63959;51.960;5.886;2023-08-30T22:43:59;3.83;;;1.30;;
75377;SDS011;63959;51.960;5.886;2023-08-30T22:55:48;4.28;;;1.52;;
75377;SDS011;63959;51.960;5.886;2023-08-30T23:08:32;4.53;;;1.40;;
